Time;durP1;ratioP1;P1;durP2;ratioP2;P2;SDS_P1;SDS_P2;PMS_P1;PMS_P2;Temp;Humidity;BMP_temperature;BMP_pressure;BME280_temperature;BME280_humidity;BME280_pressure;Samples;Min_cycle;Max_cycle;Signal;HPM_P1;HPM_P2
2022/10/03 00:03:12;;;;;;;43.13;21.35;;;;;;;27.95;65.82;98150.44;4893801;29;20371;-71
2022/10/03 00:06:03;;;;;;;46.88;22.42;;;;;;;28.03;65.18;98148.72;4876251;29;20376;-72
2022/10/03 00:08:54;;;;;;;48.13;23.55;;;;;;;27.73;66.43;98159.91;4877354;29;20144;-72
2022/10/03 00:11:51;;;;;;;40.85;22.05;;;;;;;27.86;66.34;98156.03;4893002;29;20051;-73
2022/10/03 00:14:33;;;;;;;48.50;24.50;;;;;;;27.82;66.37;98157.06;4892405;29;20147;-71
2022/10/03 00:17:33;;;;;;;54.00;24.45;;;;;;;27.84;66.03;98160.25;4893467;29;20067;-72
2022/10/03 00:20:42;;;;;;;43.28;26.17;;;;;;;27.87;65.61;98157.63;4893433;29;20061;-72
2022/10/03 00:23:53;;;;;;;52.28;26.05;;;;;;;28.09;64.47;98166.69;4876624;29;20053;-73
2022/10/03 00:26:53;;;;;;;46.53;25.17;;;;;;;27.92;65.20;98162.97;4878236;29;20052;-71
2022/10/03 00:30:07;;;;;;;45.78;26.05;;;;;;;27.94;65.35;98170.09;4892520;29;20052;-70
2022/10/03 00:33:01;;;;;;;54.72;25.05;;;;;;;27.99;65.24;98167.09;4892817;29;20512;-72
2022/10/03 00:36:13;;;;;;;45.55;24.42;;;;;;;27.87;65.88;98165.91;4893357;29;20803;-72
2022/10/03 00:39:33;;;;;;;58.20;24.95;;;;;;;27.98;65.21;98174.59;4893411;29;20053;-72
2022/10/03 00:42:28;;;;;;;50.85;24.65;;;;;;;27.78;66.22;98169.91;4862243;29;20155;-71
2022/10/03 00:45:28;;;;;;;50.00;26.00;;;;;;;27.91;65.97;98172.38;4893262;29;20053;-73
2022/10/03 00:48:55;;;;;;;52.33;25.30;;;;;;;27.98;66.03;98179.31;4893594;29;20085;-73
2022/10/03 00:52:01;;;;;;;48.40;25.67;;;;;;;27.88;66.47;98178.59;4893021;29;20049;-72
2022/10/03 00:55:15;;;;;;;45.50;24.70;;;;;;;27.87;66.64;98190.72;4894612;28;20065;-72
2022/10/03 00:58:22;;;;;;;50.60;25.20;;;;;;;27.89;66.80;98193.19;4892094;29;20074;-74
2022/10/03 01:01:42;;;;;;;52.17;26.13;;;;;;;27.47;68.63;98190.50;4891356;29;20064;-73
2022/10/03 01:05:04;;;;;;;58.83;27.35;;;;;;;27.40;68.68;98195.75;4873942;29;20793;-73
2022/10/03 01:08:11;;;;;;;52.58;26.20;;;;;;;27.29;69.18;98206.38;4887410;29;20099;-73
2022/10/03 01:11:17;;;;;;;58.53;27.15;;;;;;;27.27;69.59;98200.41;4898638;29;20069;-73
2022/10/03 01:14:21;;;;;;;51.00;26.42;;;;;;;27.24;69.20;98203.81;4896310;29;20071;-73
2022/10/03 01:17:21;;;;;;;49.22;27.15;;;;;;;27.35;69.17;98221.56;4877536;29;20441;-73
2022/10/03 01:20:34;;;;;;;59.78;29.02;;;;;;;27.36;68.97;98214.91;4875461;29;20060;-73
2022/10/03 01:23:25;;;;;;;56.33;29.30;;;;;;;27.37;69.12;98208.25;4894173;29;20045;-72
2022/10/03 01:26:53;;;;;;;56.13;28.92;;;;;;;27.50;68.99;98211.88;4893009;29;20080;-71
2022/10/03 01:33:00;;;;;;;63.95;30.88;;;;;;;27.59;68.58;98231.91;4892599;29;20072;-75
2022/10/03 01:36:25;;;;;;;64.97;30.27;;;;;;;27.55;69.73;98233.69;4891139;29;20057;-73
2022/10/03 01:39:59;;;;;;;58.72;29.85;;;;;;;27.94;67.26;98241.81;4844144;29;20109;-73
2022/10/03 01:43:01;;;;;;;55.80;29.38;;;;;;;28.09;67.05;98249.44;4853318;29;20580;-72
2022/10/03 01:46:30;;;;;;;66.00;30.73;;;;;;;28.08;67.27;98251.38;4875205;29;20116;-73
2022/10/03 01:49:33;;;;;;;66.30;31.73;;;;;;;28.16;66.86;98254.38;4864195;29;20075;-74
2022/10/03 01:52:36;;;;;;;61.35;31.30;;;;;;;28.38;66.17;98247.63;4873617;29;20053;-75
2022/10/03 01:55:56;;;;;;;63.80;32.47;;;;;;;28.31;67.17;98262.00;4874789;29;20056;-74
2022/10/03 01:58:55;;;;;;;65.05;32.05;;;;;;;28.43;66.41;98259.25;4889002;29;20060;-74
2022/10/03 02:01:49;;;;;;;61.88;31.63;;;;;;;28.50;66.43;98264.19;4888852;29;20064;-72
2022/10/03 02:04:40;;;;;;;58.25;31.63;;;;;;;28.68;66.37;98267.56;4891674;29;20076;-72
2022/10/03 02:07:53;;;;;;;62.60;32.13;;;;;;;28.59;66.14;98264.94;4891456;29;20053;-72
2022/10/03 02:11:00;;;;;;;62.15;32.30;;;;;;;28.39;64.96;98271.31;4891773;29;20484;-72
2022/10/03 02:14:37;;;;;;;65.53;33.47;;;;;;;28.71;64.81;98264.13;4888694;29;20115;-73
2022/10/03 02:17:56;;;;;;;54.95;29.52;;;;;;;28.97;63.79;98266.53;4852486;29;20068;-73
2022/10/03 02:20:58;;;;;;;63.70;31.90;;;;;;;28.97;63.65;98268.47;4877007;29;20044;-71
2022/10/03 02:23:49;;;;;;;61.67;31.98;;;;;;;29.15;63.90;98272.63;4891401;29;20053;-72
2022/10/03 02:27:13;;;;;;;80.22;35.55;;;;;;;28.61;63.63;98275.63;4877292;29;20048;-72
2022/10/03 02:30:09;;;;;;;62.60;34.00;;;;;;;28.89;63.94;98271.03;4891296;29;20048;-72
2022/10/03 02:33:40;;;;;;;68.05;36.10;;;;;;;29.27;62.71;98280.91;4891407;29;20352;-72
2022/10/03 02:36:49;;;;;;;77.30;39.42;;;;;;;28.74;62.98;98281.94;4890461;29;20465;-73
2022/10/03 02:39:59;;;;;;;90.40;40.30;;;;;;;28.86;63.52;98287.47;4860168;29;20044;-74
2022/10/03 02:43:14;;;;;;;83.10;40.33;;;;;;;29.05;61.95;98290.47;4891095;29;20076;-72
2022/10/03 02:46:32;;;;;;;83.85;41.58;;;;;;;29.05;61.82;98287.69;4890648;29;20045;-72
2022/10/03 02:49:55;;;;;;;79.95;41.67;;;;;;;29.50;62.32;98294.19;4890011;29;20084;-73
2022/10/03 02:53:12;;;;;;;94.72;46.38;;;;;;;29.25;60.61;98287.91;4889581;29;20053;-75
2022/10/03 02:56:35;;;;;;;90.18;45.92;;;;;;;29.54;60.72;98280.47;4867870;29;20060;-72
2022/10/03 02:59:31;;;;;;;89.97;46.63;;;;;;;29.74;60.30;98298.88;4890612;29;20094;-73
2022/10/03 03:03:01;;;;;;;97.70;47.53;;;;;;;29.91;59.35;98297.78;4890720;29;20052;-72
2022/10/03 03:06:03;;;;;;;90.30;44.75;;;;;;;30.15;58.34;98307.94;4890742;29;20291;-74
2022/10/03 03:09:17;;;;;;;100.95;46.75;;;;;;;29.63;58.40;98314.31;4887688;29;20230;-73
2022/10/03 03:12:22;;;;;;;97.18;44.60;;;;;;;29.77;58.24;98314.78;4890798;29;20060;-72
2022/10/03 03:15:26;;;;;;;82.78;41.25;;;;;;;30.43;58.01;98326.47;4890115;29;20071;-72
2022/10/03 03:18:41;;;;;;;77.07;39.70;;;;;;;30.40;59.14;98322.47;4890736;29;20152;-73
2022/10/03 03:21:51;;;;;;;77.63;38.58;;;;;;;30.22;58.01;98326.69;4873849;29;20148;-72
2022/10/03 03:24:59;;;;;;;91.60;39.42;;;;;;;30.47;56.76;98327.38;4891086;29;20049;-74
2022/10/03 03:28:27;;;;;;;86.50;37.42;;;;;;;30.46;56.78;98328.53;4890604;29;20148;-73
2022/10/03 03:31:23;;;;;;;86.35;35.55;;;;;;;30.76;56.79;98331.66;4836063;29;20199;-72
2022/10/03 03:34:44;;;;;;;82.75;37.83;;;;;;;30.66;55.10;98334.16;4893973;29;20127;-72
2022/10/03 03:37:38;;;;;;;73.97;36.08;;;;;;;30.73;57.11;98337.94;4860269;29;20083;-73
2022/10/03 03:40:52;;;;;;;74.65;36.65;;;;;;;30.87;55.50;98343.00;4894219;29;20068;-73
2022/10/03 03:43:36;;;;;;;75.85;36.67;;;;;;;31.09;56.57;98340.78;4894562;29;20437;-72
2022/10/03 03:46:38;;;;;;;78.85;38.45;;;;;;;31.12;55.68;98348.38;4893700;29;20377;-72
2022/10/03 03:49:58;;;;;;;74.68;36.33;;;;;;;31.14;54.73;98340.50;4877033;29;20678;-73
2022/10/03 03:52:53;;;;;;;74.32;34.90;;;;;;;31.42;56.61;98346.72;4880099;29;20136;-74
2022/10/03 03:56:21;;;;;;;82.53;36.33;;;;;;;31.54;53.93;98345.00;4877707;29;20057;-72
2022/10/03 03:59:47;;;;;;;68.88;34.40;;;;;;;31.54;54.62;98347.78;4878441;29;20117;-74
2022/10/03 04:02:51;;;;;;;71.90;32.58;;;;;;;31.87;54.43;98350.06;4892675;29;20566;-74
2022/10/03 04:06:04;;;;;;;74.60;36.00;;;;;;;31.91;52.39;98352.91;4893950;29;20053;-73
2022/10/03 04:09:15;;;;;;;73.75;34.50;;;;;;;32.19;52.81;98350.72;4893902;29;20131;-74
2022/10/03 04:12:08;;;;;;;75.10;33.15;;;;;;;32.33;50.86;98354.94;4893939;29;20059;-74
2022/10/03 04:15:33;;;;;;;67.40;31.73;;;;;;;32.44;50.43;98358.72;4875424;29;20615;-72
2022/10/03 04:18:59;;;;;;;67.90;30.13;;;;;;;32.81;49.71;98354.63;4874309;29;20384;-72
2022/10/03 04:22:00;;;;;;;59.70;28.30;;;;;;;33.13;50.50;98353.25;4879524;29;20139;-75
2022/10/03 04:25:25;;;;;;;73.72;31.25;;;;;;;33.41;49.39;98342.91;4887387;29;20795;-74
2022/10/03 04:28:31;;;;;;;64.25;32.00;;;;;;;33.92;47.85;98345.19;4877138;29;20056;-74
2022/10/03 04:31:40;;;;;;;73.30;32.65;;;;;;;34.24;44.63;98345.59;4892952;29;20060;-73
2022/10/03 04:34:35;;;;;;;70.15;31.05;;;;;;;34.46;46.61;98349.41;4876747;29;20079;-73
2022/10/03 04:37:43;;;;;;;66.25;31.63;;;;;;;34.77;45.94;98352.88;4874784;29;20120;-74
2022/10/03 04:40:54;;;;;;;71.75;32.03;;;;;;;34.97;44.62;98352.66;4892840;29;20060;-73
2022/10/03 04:43:55;;;;;;;70.63;32.75;;;;;;;34.95;44.95;98352.22;4893624;29;20068;-74
2022/10/03 04:46:53;;;;;;;76.40;32.33;;;;;;;34.73;46.05;98349.28;4892902;29;20163;-73
2022/10/03 04:50:02;;;;;;;69.80;32.75;;;;;;;35.51;44.40;98345.47;4892749;29;20772;-73
2022/10/03 04:53:03;;;;;;;79.97;32.53;;;;;;;35.45;46.17;98341.47;4892026;29;20106;-74
2022/10/03 04:56:11;;;;;;;72.90;30.52;;;;;;;35.35;44.90;98342.19;4875646;28;20105;-74
2022/10/03 04:59:26;;;;;;;62.72;28.98;;;;;;;36.17;44.35;98344.59;4859408;29;20560;-74
2022/10/03 05:02:36;;;;;;;50.80;24.13;;;;;;;36.20;42.14;98341.03;4872125;29;20112;-75
2022/10/03 05:05:30;;;;;;;57.92;24.33;;;;;;;36.40;42.79;98333.91;4855761;29;20053;-74
2022/10/03 05:08:25;;;;;;;52.45;23.75;;;;;;;36.33;43.47;98342.25;4855270;29;20061;-75
2022/10/03 05:11:45;;;;;;;57.47;23.65;;;;;;;36.93;42.68;98343.53;4855981;29;20057;-72
2022/10/03 05:14:49;;;;;;;62.65;27.55;;;;;;;36.33;43.13;98344.28;4855288;29;20049;-72
2022/10/03 05:18:02;;;;;;;52.00;25.13;;;;;;;36.14;41.71;98337.00;4855526;29;20838;-71
2022/10/03 05:21:19;;;;;;;42.37;24.13;;;;;;;36.04;40.55;98338.56;4855280;29;20109;-70
2022/10/03 05:24:51;;;;;;;63.00;26.60;;;;;;;35.81;41.79;98338.88;4853298;29;20061;-69
2022/10/03 05:27:51;;;;;;;53.80;26.55;;;;;;;35.68;45.26;98338.44;4849709;29;20052;-72
2022/10/03 05:31:02;;;;;;;59.17;28.42;;;;;;;35.98;45.64;98318.59;4874187;29;20140;-72
2022/10/03 05:34:17;;;;;;;66.60;30.25;;;;;;;36.34;41.69;98324.28;4873382;29;20144;-72
2022/10/03 05:37:04;;;;;;;63.42;30.65;;;;;;;36.26;43.75;98328.28;4873430;29;20052;-71
2022/10/03 05:40:08;;;;;;;69.13;33.50;;;;;;;36.11;41.53;98321.81;4867301;29;20077;-71
2022/10/03 05:42:59;;;;;;;68.97;34.50;;;;;;;36.49;44.38;98324.31;4879919;29;20061;-71
2022/10/03 05:46:36;;;;;;;71.68;37.17;;;;;;;36.87;41.41;98327.56;4874776;29;20777;-72
2022/10/03 05:50:19;;;;;;;59.38;30.50;;;;;;;36.39;42.43;98323.91;4872743;29;20064;-72
2022/10/03 05:53:20;;;;;;;59.35;27.05;;;;;;;36.94;42.26;98317.16;4855709;29;20060;-71
2022/10/03 05:56:15;;;;;;;43.70;19.95;;;;;;;36.44;39.15;98323.53;4870730;29;20448;-72
2022/10/03 05:58:56;;;;;;;51.20;17.45;;;;;;;36.52;42.54;98317.94;4858292;29;20064;-72
2022/10/03 06:02:19;;;;;;;48.72;20.48;;;;;;;36.87;40.70;98319.19;4854500;29;20541;-72
2022/10/03 06:05:29;;;;;;;54.97;21.88;;;;;;;37.21;41.15;98313.97;4853873;29;20488;-72
2022/10/03 06:08:27;;;;;;;50.83;20.60;;;;;;;37.16;40.97;98317.16;4849836;29;20411;-70
2022/10/03 06:11:18;;;;;;;40.35;18.30;;;;;;;36.64;40.52;98315.53;4832842;29;20487;-70
2022/10/03 06:14:33;;;;;;;37.83;16.70;;;;;;;37.04;44.02;98312.75;4857412;29;20061;-70
2022/10/03 06:18:10;;;;;;;37.42;15.45;;;;;;;37.13;38.86;98302.00;4869074;29;20057;-71
2022/10/03 06:21:26;;;;;;;34.13;13.65;;;;;;;36.93;39.00;98311.97;4783507;29;20051;-70
2022/10/03 06:24:10;;;;;;;39.58;14.00;;;;;;;36.90;39.40;98312.75;4854276;29;20061;-69
2022/10/03 06:27:12;;;;;;;33.85;13.15;;;;;;;36.77;41.28;98302.00;4824457;29;20049;-71
2022/10/03 06:30:15;;;;;;;31.65;11.55;;;;;;;36.95;39.69;98306.78;4855028;29;20045;-72
2022/10/03 06:33:14;;;;;;;23.40;10.18;;;;;;;37.26;40.52;98293.94;4854567;29;20041;-70
2022/10/03 06:36:40;;;;;;;22.42;9.95;;;;;;;36.68;39.11;98296.00;4839785;29;20106;-70
2022/10/03 06:40:12;;;;;;;26.70;9.98;;;;;;;36.97;41.50;98276.41;4887753;29;20212;-71
2022/10/03 06:43:28;;;;;;;19.92;9.85;;;;;;;37.01;38.51;98285.59;4870658;29;20048;-71
2022/10/03 06:46:53;;;;;;;23.55;9.68;;;;;;;36.99;39.21;98288.00;4859601;29;20060;-71
2022/10/03 06:49:55;;;;;;;27.75;9.85;;;;;;;36.73;39.49;98278.03;4863564;29;20062;-70
2022/10/03 06:53:17;;;;;;;17.55;9.32;;;;;;;36.70;40.85;98268.44;4876488;29;20157;-70
2022/10/03 06:56:24;;;;;;;27.35;9.95;;;;;;;36.48;38.84;98278.00;4857059;29;20060;-71
2022/10/03 06:59:22;;;;;;;21.63;10.32;;;;;;;36.76;39.94;98269.63;4876272;29;20143;-71
2022/10/03 07:02:38;;;;;;;24.38;10.88;;;;;;;37.04;39.38;98265.22;4874213;29;20052;-70
2022/10/03 07:05:34;;;;;;;19.25;9.75;;;;;;;36.99;38.66;98262.81;4890253;29;20632;-70
2022/10/03 07:08:34;;;;;;;35.42;10.02;;;;;;;36.57;39.06;98265.22;4890479;29;20380;-71
2022/10/03 07:11:45;;;;;;;22.27;10.65;;;;;;;36.71;38.08;98255.25;4875830;29;20678;-71
2022/10/03 07:14:56;;;;;;;35.03;10.35;;;;;;;36.76;39.26;98250.06;4871909;29;20052;-71
2022/10/03 07:18:08;;;;;;;23.70;8.82;;;;;;;36.72;38.67;98259.66;4869839;29;20072;-72
2022/10/03 07:21:24;;;;;;;18.73;7.88;;;;;;;36.60;36.65;98246.88;4889860;29;20052;-71
2022/10/03 07:24:33;;;;;;;22.92;7.40;;;;;;;36.93;38.48;98242.06;4873928;29;20048;-70
2022/10/03 07:27:29;;;;;;;18.30;7.18;;;;;;;36.93;38.91;98236.47;4890025;29;20532;-71
2022/10/03 07:30:31;;;;;;;28.27;8.07;;;;;;;36.91;38.48;98244.47;4889209;29;20053;-71
2022/10/03 07:33:31;;;;;;;17.38;7.15;;;;;;;36.49;37.98;98246.06;4889165;29;20063;-72
2022/10/03 07:40:39;;;;;;;15.68;7.10;;;;;;;36.53;38.60;98230.09;4888742;29;20071;-70
2022/10/03 07:43:55;;;;;;;21.95;6.80;;;;;;;36.71;40.81;98230.91;4890132;29;20049;-72
2022/10/03 07:47:01;;;;;;;17.08;6.65;;;;;;;36.49;37.94;98230.09;4890192;29;20056;-71
2022/10/03 07:50:06;;;;;;;14.90;6.85;;;;;;;36.81;39.84;98230.09;4889395;29;20049;-72
2022/10/03 07:53:10;;;;;;;24.00;6.75;;;;;;;36.77;38.61;98223.69;4888660;29;20049;-71
2022/10/03 07:56:16;;;;;;;14.52;7.22;;;;;;;36.63;39.02;98213.31;4867687;29;20053;-71
2022/10/03 07:59:28;;;;;;;14.75;6.38;;;;;;;36.62;38.23;98205.31;4872640;29;20048;-71
2022/10/03 08:02:49;;;;;;;13.77;6.40;;;;;;;36.48;38.08;98199.75;4870446;29;20066;-71
2022/10/03 08:06:27;;;;;;;15.98;7.05;;;;;;;36.46;39.40;98202.97;4870961;29;20048;-71
2022/10/03 08:09:32;;;;;;;19.25;6.80;;;;;;;36.44;41.39;98200.56;4870942;29;20045;-71
2022/10/03 08:13:01;;;;;;;22.33;7.60;;;;;;;36.54;39.71;98198.94;4874725;29;20061;-71
2022/10/03 08:16:01;;;;;;;21.73;8.40;;;;;;;36.14;40.74;98189.75;4889448;29;20078;-72
2022/10/03 08:19:28;;;;;;;16.60;8.20;;;;;;;36.22;42.39;98202.53;4887656;29;20072;-72
2022/10/03 08:22:41;;;;;;;16.77;6.95;;;;;;;36.15;39.42;98196.91;4893153;29;20053;-71
2022/10/03 08:25:58;;;;;;;18.08;7.25;;;;;;;36.25;39.93;98184.19;4890945;29;20048;-72
2022/10/03 08:29:07;;;;;;;23.58;8.13;;;;;;;36.28;38.86;98182.59;4875159;29;20052;-71
2022/10/03 08:32:41;;;;;;;16.73;7.47;;;;;;;36.03;39.26;98181.34;4874728;29;20508;-72
2022/10/03 08:35:39;;;;;;;21.42;9.75;;;;;;;36.14;41.47;98177.78;4858061;29;20097;-72
2022/10/03 08:38:53;;;;;;;23.08;8.85;;;;;;;36.08;40.21;98171.78;4860576;29;20148;-71
2022/10/03 08:42:06;;;;;;;19.27;9.70;;;;;;;35.94;41.41;98171.75;4875201;29;20317;-72
2022/10/03 08:45:22;;;;;;;17.48;9.27;;;;;;;36.00;40.54;98154.22;4891640;29;20060;-73
2022/10/03 08:48:35;;;;;;;25.90;9.85;;;;;;;36.19;41.23;98155.88;4893558;29;20045;-72
2022/10/03 08:51:52;;;;;;;29.55;11.50;;;;;;;35.83;42.84;98155.81;4890145;29;20143;-71
2022/10/03 08:54:43;;;;;;;21.83;12.00;;;;;;;36.04;43.18;98143.84;4879627;29;20143;-72
2022/10/03 08:57:54;;;;;;;30.05;13.15;;;;;;;36.04;42.55;98140.28;4896864;29;20052;-72
2022/10/03 09:00:51;;;;;;;20.85;11.55;;;;;;;35.99;43.83;98138.66;4872042;29;20145;-72
2022/10/03 09:04:04;;;;;;;25.83;11.98;;;;;;;36.28;42.08;98135.88;4873876;29;20048;-72
2022/10/03 09:07:30;;;;;;;25.40;12.00;;;;;;;35.82;42.32;98142.25;4874013;29;20049;-72
2022/10/03 09:10:22;;;;;;;30.20;10.52;;;;;;;35.87;40.95;98137.06;4836460;29;20120;-72
2022/10/03 09:13:16;;;;;;;21.08;9.60;;;;;;;36.20;41.31;98123.13;4871906;29;20063;-72
2022/10/03 09:16:22;;;;;;;24.10;9.13;;;;;;;36.07;41.16;98123.50;4870696;29;20056;-71
2022/10/03 09:19:29;;;;;;;18.90;8.18;;;;;;;36.04;40.27;98115.94;4871779;29;20448;-71
2022/10/03 09:22:37;;;;;;;16.92;7.35;;;;;;;35.97;39.17;98113.13;4873755;29;20442;-71
2022/10/03 09:25:58;;;;;;;13.02;6.82;;;;;;;35.85;39.87;98114.31;4873374;29;20060;-71
2022/10/03 09:29:11;;;;;;;24.75;9.85;;;;;;;35.51;41.64;98113.06;4873714;29;20052;-71
2022/10/03 09:32:33;;;;;;;16.40;8.00;;;;;;;35.66;39.55;98115.47;4873204;29;20079;-72
2022/10/03 09:35:49;;;;;;;17.75;8.57;;;;;;;35.42;40.58;98110.63;4872303;29;20493;-72
2022/10/03 09:39:00;;;;;;;18.73;7.60;;;;;;;35.74;39.83;98107.94;4872939;29;20076;-71
2022/10/03 09:42:23;;;;;;;24.90;8.32;;;;;;;35.70;40.87;98104.34;4872196;29;20056;-71
2022/10/03 09:45:42;;;;;;;23.75;8.35;;;;;;;35.65;40.10;98102.69;4872141;29;20057;-71
2022/10/03 09:48:50;;;;;;;13.88;7.88;;;;;;;35.90;38.93;98104.75;4855281;29;20492;-70
2022/10/03 09:51:50;;;;;;;24.50;8.43;;;;;;;35.83;38.38;98110.34;4854852;29;20045;-71
2022/10/03 09:54:47;;;;;;;16.20;6.78;;;;;;;35.55;37.99;98111.88;4854451;29;20554;-71
2022/10/03 09:57:42;;;;;;;13.00;6.82;;;;;;;35.41;37.36;98100.69;4853714;29;20113;-71
2022/10/03 10:00:46;;;;;;;14.80;6.35;;;;;;;35.64;36.14;98105.91;4867756;29;20501;-71
2022/10/03 10:04:12;;;;;;;15.25;6.00;;;;;;;35.76;36.70;98096.38;4871483;29;20160;-71
2022/10/03 10:07:26;;;;;;;20.38;6.35;;;;;;;35.76;36.61;98094.38;4872633;29;20053;-71
2022/10/03 10:10:36;;;;;;;27.80;8.75;;;;;;;35.91;37.37;98100.78;4869839;29;20064;-72
2022/10/03 10:13:39;;;;;;;16.27;6.82;;;;;;;35.83;37.78;98101.97;4872286;29;20143;-72
2022/10/03 10:17:07;;;;;;;20.13;7.25;;;;;;;35.83;37.31;98096.38;4869920;29;20045;-72
2022/10/03 10:20:16;;;;;;;17.50;7.80;;;;;;;35.56;37.55;98110.69;4871673;29;20076;-71
2022/10/03 10:23:06;;;;;;;19.85;7.47;;;;;;;35.33;37.62;98104.63;4871572;29;20464;-72
2022/10/03 10:26:14;;;;;;;23.80;9.05;;;;;;;35.42;37.17;98105.84;4870578;29;20041;-72
2022/10/03 10:29:16;;;;;;;22.00;9.00;;;;;;;35.40;38.60;98102.66;4871069;29;21317;-71
2022/10/03 10:32:30;;;;;;;26.67;10.73;;;;;;;35.44;38.23;98095.09;4871760;29;20763;-71
2022/10/03 10:36:05;;;;;;;17.10;8.13;;;;;;;35.75;37.88;98086.38;4870447;29;20482;-72
2022/10/03 10:39:03;;;;;;;29.67;8.77;;;;;;;35.68;39.95;98090.00;4869559;29;20144;-72
2022/10/03 10:42:09;;;;;;;23.10;11.27;;;;;;;35.47;40.17;98094.31;4871388;29;20061;-73
2022/10/03 10:45:22;;;;;;;29.83;11.27;;;;;;;35.69;39.74;98088.78;4870143;29;20820;-73
2022/10/03 10:48:46;;;;;;;40.53;11.32;;;;;;;35.56;40.71;98090.34;4869839;29;20088;-73
2022/10/03 10:51:30;;;;;;;23.25;11.68;;;;;;;35.48;40.48;98093.13;4855826;29;20123;-72
2022/10/03 10:54:55;;;;;;;25.88;11.05;;;;;;;35.41;39.80;98086.75;4871235;29;20355;-72
2022/10/03 10:58:33;;;;;;;27.25;12.18;;;;;;;35.16;40.86;98083.84;4884679;29;20055;-73
2022/10/03 11:02:02;;;;;;;23.00;12.10;;;;;;;35.19;40.89;98083.09;4890345;29;20139;-71
2022/10/03 11:05:28;;;;;;;23.85;11.18;;;;;;;35.23;41.26;98079.09;4890136;29;20076;-73
2022/10/03 11:08:30;;;;;;;22.08;11.60;;;;;;;35.05;40.35;98078.25;4863503;29;20057;-71
2022/10/03 11:11:43;;;;;;;19.80;11.23;;;;;;;35.08;40.55;98083.03;4870038;29;20053;-73
2022/10/03 11:14:49;;;;;;;19.35;9.63;;;;;;;35.03;38.81;98075.84;4889940;29;20067;-73
2022/10/03 11:19:00;;;;;;;19.63;9.02;;;;;;;34.93;36.47;98075.78;4881864;29;20053;-73
2022/10/03 11:21:59;;;;;;;23.48;9.52;;;;;;;35.10;37.67;98075.06;4888441;29;20377;-72
2022/10/03 11:24:52;;;;;;;23.38;9.93;;;;;;;34.88;39.29;98074.19;4889460;29;20058;-72
2022/10/03 11:28:02;;;;;;;20.23;10.75;;;;;;;34.60;39.89;98069.25;4859457;29;20101;-72
2022/10/03 11:31:27;;;;;;;20.38;10.30;;;;;;;34.63;39.77;98076.84;4889542;29;20135;-73
2022/10/03 11:34:16;;;;;;;;;;;;;;;34.65;39.62;98077.25;4890325;29;20729;-72
2022/10/03 11:37:33;;;;;;;22.77;9.98;;;;;;;34.94;40.74;98074.63;4860474;29;19927;-74
2022/10/03 11:40:36;;;;;;;19.48;10.23;;;;;;;34.69;43.25;98075.31;4854508;29;20571;-73
2022/10/03 11:44:10;;;;;;;17.90;9.55;;;;;;;34.68;41.35;98079.28;4871831;29;20668;-73
2022/10/03 11:47:30;;;;;;;28.27;10.15;;;;;;;34.29;42.33;98077.84;4867635;29;20059;-73
2022/10/03 11:50:34;;;;;;;27.23;10.80;;;;;;;34.39;42.67;98084.66;4875556;29;20056;-71
2022/10/03 11:53:48;;;;;;;25.85;10.60;;;;;;;34.29;44.49;98082.63;4893978;29;20057;-71
2022/10/03 11:56:34;;;;;;;21.15;10.25;;;;;;;34.28;42.43;98086.56;4893352;29;20076;-71
2022/10/03 11:59:48;;;;;;;17.60;9.77;;;;;;;34.09;43.69;98084.84;4894289;29;20055;-71
2022/10/03 12:02:37;;;;;;;43.30;12.77;;;;;;;34.01;42.68;98077.59;4892460;29;20063;-70
2022/10/03 12:08:53;;;;;;;32.13;12.35;;;;;;;33.99;42.93;98080.78;4893457;29;20048;-72
2022/10/03 12:10:03;;;;;;;22.92;11.57;;;;;;;34.13;43.31;98072.53;4894191;29;20048;-72
2022/10/03 12:12:42;;;;;;;31.73;11.73;;;;;;;33.99;44.66;98069.63;4849247;29;20385;-73
2022/10/03 12:15:57;;;;;;;33.58;11.82;;;;;;;33.84;43.95;98079.06;4893774;29;20544;-72
2022/10/03 12:18:41;;;;;;;33.85;11.98;;;;;;;33.77;45.50;98079.81;4891871;29;20052;-72
2022/10/03 12:22:06;;;;;;;26.98;12.00;;;;;;;33.82;45.55;98084.22;4893790;29;20064;-72
2022/10/03 12:24:44;;;;;;;25.70;13.02;;;;;;;33.80;44.44;98079.03;4871680;29;20041;-71
2022/10/03 12:28:17;;;;;;;27.27;12.63;;;;;;;33.65;46.54;98089.25;4860266;29;20660;-72
2022/10/03 12:31:14;;;;;;;49.13;13.95;;;;;;;33.45;46.33;98085.06;4874853;29;20594;-73
2022/10/03 12:34:39;;;;;;;31.98;13.32;;;;;;;33.40;47.92;98088.16;4881324;29;20140;-72
2022/10/03 12:37:39;;;;;;;32.67;13.43;;;;;;;33.30;47.88;98084.09;4892392;29;20543;-72
2022/10/03 12:40:57;;;;;;;28.95;15.10;;;;;;;33.26;48.13;98086.03;4892966;29;20052;-72
2022/10/03 12:44:19;;;;;;;30.60;14.48;;;;;;;33.12;49.23;98089.47;4890371;29;20452;-73
2022/10/03 12:47:28;;;;;;;39.35;17.08;;;;;;;33.02;48.63;98092.88;4892810;29;20124;-72
2022/10/03 12:51:16;;;;;;;36.20;16.15;;;;;;;32.96;50.42;98082.13;4892716;29;20100;-72
2022/10/03 12:54:16;;;;;;;38.38;15.93;;;;;;;32.82;50.63;98090.25;4892967;29;20048;-72
2022/10/03 12:57:37;;;;;;;48.25;16.58;;;;;;;32.80;50.35;98081.50;4874862;29;20448;-73
2022/10/03 13:00:25;;;;;;;54.83;15.73;;;;;;;32.76;51.10;98083.44;4891913;29;20052;-70
2022/10/03 13:03:24;;;;;;;69.57;17.92;;;;;;;32.71;50.30;98089.31;4891962;29;20076;-70
2022/10/03 13:06:07;;;;;;;56.40;19.48;;;;;;;32.69;50.88;98084.13;4893381;29;20060;-71
2022/10/03 13:09:05;;;;;;;43.50;17.77;;;;;;;32.66;51.29;98089.69;4893424;29;20044;-72
2022/10/03 13:11:58;;;;;;;49.58;17.38;;;;;;;32.54;51.94;98094.25;4892303;29;20052;-71
2022/10/03 13:15:22;;;;;;;38.88;18.23;;;;;;;32.56;52.04;98099.41;4859447;29;20060;-70
2022/10/03 13:18:26;;;;;;;41.40;20.13;;;;;;;32.55;51.75;98090.28;4872652;29;20041;-73
2022/10/03 13:21:33;;;;;;;51.75;18.10;;;;;;;32.56;51.83;98105.81;4857663;29;20124;-72
2022/10/03 13:24:38;;;;;;;33.03;19.35;;;;;;;32.49;51.45;98107.66;4872766;29;20056;-72
2022/10/03 13:27:38;;;;;;;42.28;19.52;;;;;;;32.49;51.82;98105.69;4873558;29;20080;-74
2022/10/03 13:30:29;;;;;;;40.58;19.30;;;;;;;32.48;51.59;98101.28;4872477;29;20057;-76
2022/10/03 13:33:22;;;;;;;35.42;18.75;;;;;;;32.53;51.92;98109.31;4871773;29;20113;-73
2022/10/03 13:36:32;;;;;;;42.13;18.95;;;;;;;32.52;51.94;98104.94;4870475;29;20661;-75
2022/10/03 13:39:32;;;;;;;41.53;18.55;;;;;;;32.41;52.75;98111.50;4869897;29;20076;-74
2022/10/03 13:42:32;;;;;;;53.25;19.35;;;;;;;32.32;52.86;98109.00;4889859;29;20062;-73
2022/10/03 13:45:28;;;;;;;45.42;17.73;;;;;;;32.15;54.02;98115.88;4889041;29;20048;-72
2022/10/03 13:48:19;;;;;;;39.22;18.55;;;;;;;32.13;53.71;98115.44;4889003;29;20056;-71
2022/10/03 13:51:20;;;;;;;36.30;18.27;;;;;;;32.10;53.79;98118.97;4874738;29;20048;-71
2022/10/03 13:54:14;;;;;;;36.92;17.58;;;;;;;32.04;54.29;98126.78;4887651;29;20628;-69
2022/10/03 13:57:24;;;;;;;35.83;17.80;;;;;;;32.01;54.14;98127.53;4888868;29;20164;-70
2022/10/03 14:00:20;;;;;;;36.88;18.15;;;;;;;31.93;54.67;98137.72;4888265;29;20151;-68
2022/10/03 14:03:59;;;;;;;43.03;18.35;;;;;;;31.93;54.65;98140.47;4886992;29;20108;-68
2022/10/03 14:06:55;;;;;;;38.78;19.35;;;;;;;31.93;55.15;98139.66;4879616;29;20048;-69
2022/10/03 14:10:17;;;;;;;47.60;18.20;;;;;;;31.88;54.78;98145.53;4895560;29;20069;-68
2022/10/03 14:13:16;;;;;;;51.35;19.10;;;;;;;31.79;55.38;98149.34;4891572;29;20052;-70
2022/10/03 14:16:20;;;;;;;46.70;18.65;;;;;;;31.79;55.79;98154.09;4894250;29;20452;-69
2022/10/03 14:19:14;;;;;;;42.20;21.08;;;;;;;31.77;56.01;98157.22;4894934;29;20052;-69
2022/10/03 14:22:21;;;;;;;39.25;19.85;;;;;;;31.78;56.58;98161.63;4881921;29;20100;-71
2022/10/03 14:25:41;;;;;;;39.33;20.20;;;;;;;31.69;56.09;98165.81;4880218;29;20055;-71
2022/10/03 14:29:05;;;;;;;43.15;20.60;;;;;;;31.69;55.52;98166.59;4846673;29;20071;-70
2022/10/03 14:32:20;;;;;;;37.70;19.58;;;;;;;31.72;55.99;98170.59;4889480;29;20100;-70
2022/10/03 14:35:33;;;;;;;42.08;18.73;;;;;;;31.68;57.00;98176.13;4890231;29;20147;-69
2022/10/03 14:39:04;;;;;;;41.47;19.98;;;;;;;31.73;56.91;98177.78;4878096;29;20656;-70
2022/10/03 14:42:00;;;;;;;44.60;20.10;;;;;;;31.69;56.74;98177.69;4871359;29;20051;-70